createdAt,value
2023-03-11T00:00:30.591Z,983.09
2023-03-11T00:01:30.573Z,983.13
2023-03-11T00:02:30.558Z,983.15
2023-03-11T00:03:30.589Z,983.17
2023-03-11T00:04:30.541Z,983.20
2023-03-11T00:05:30.556Z,983.25
2023-03-11T00:06:30.515Z,983.26
2023-03-11T00:07:30.545Z,983.29
2023-03-11T00:08:30.551Z,983.34
2023-03-11T00:09:30.484Z,983.40
2023-03-11T00:10:30.496Z,983.43
2023-03-11T00:11:30.464Z,983.54
2023-03-11T00:12:30.455Z,983.59
2023-03-11T00:13:30.459Z,983.68
2023-03-11T00:14:30.433Z,983.73
2023-03-11T00:15:30.432Z,983.83
2023-03-11T00:16:30.475Z,983.87
2023-03-11T00:17:30.400Z,983.95
2023-03-11T00:18:30.404Z,983.97
2023-03-11T00:19:30.403Z,983.93
2023-03-11T00:20:30.368Z,983.97
2023-03-11T00:21:30.356Z,984.02
2023-03-11T00:22:30.347Z,984.02
2023-03-11T00:23:30.355Z,984.03
2023-03-11T00:24:30.440Z,984.00
2023-03-11T00:25:30.322Z,984.05
2023-03-11T00:26:30.526Z,984.08
2023-03-11T00:27:30.286Z,984.05
2023-03-11T00:28:31.727Z,984.10
2023-03-11T00:29:30.267Z,984.15
2023-03-11T00:30:30.321Z,984.15
2023-03-11T00:31:30.432Z,984.16
2023-03-11T00:32:30.257Z,984.22
2023-03-11T00:33:30.513Z,984.25
2023-03-11T00:34:30.213Z,984.27
2023-03-11T00:35:30.418Z,984.37
2023-03-11T00:36:30.192Z,984.30
2023-03-11T00:37:30.176Z,984.37
2023-03-11T00:38:30.200Z,984.35
2023-03-11T00:39:30.180Z,984.39
2023-03-11T00:40:30.149Z,984.45
2023-03-11T00:41:30.138Z,984.46
2023-03-11T00:42:30.126Z,984.47
2023-03-11T00:43:30.116Z,984.52
2023-03-11T00:44:30.119Z,984.49
2023-03-11T00:45:30.104Z,984.53
2023-03-11T00:46:30.176Z,984.56
2023-03-11T00:47:30.073Z,984.57
2023-03-11T00:48:30.066Z,984.55
2023-03-11T00:49:30.061Z,984.62
2023-03-11T00:50:30.075Z,984.59
2023-03-11T00:51:31.556Z,984.60
2023-03-11T00:52:30.065Z,984.58
2023-03-11T00:53:30.046Z,984.61
2023-03-11T00:54:30.004Z,984.62
2023-03-11T00:55:29.987Z,984.62
2023-03-11T00:56:30.017Z,984.68
2023-03-11T00:57:29.966Z,984.65
2023-03-11T00:58:29.950Z,984.69
2023-03-11T00:59:29.973Z,984.68
2023-03-11T01:00:29.932Z,984.78
2023-03-11T01:01:29.966Z,984.74
2023-03-11T01:02:29.903Z,984.76
2023-03-11T01:03:29.897Z,984.82
2023-03-11T01:04:29.963Z,984.82
2023-03-11T01:05:29.902Z,984.89
2023-03-11T01:06:39.242Z,984.86
2023-03-11T01:07:30.871Z,984.95
2023-03-11T01:08:29.851Z,984.97
2023-03-11T01:09:29.844Z,984.99
2023-03-11T01:10:29.819Z,985.04
2023-03-11T01:11:29.838Z,985.11
2023-03-11T01:12:29.795Z,985.14
2023-03-11T01:13:29.790Z,985.13
2023-03-11T01:14:29.807Z,985.21
2023-03-11T01:15:29.770Z,985.18
2023-03-11T01:16:29.748Z,985.21
2023-03-11T01:17:29.741Z,985.24
2023-03-11T01:18:29.731Z,985.26
2023-03-11T01:19:29.739Z,985.36
2023-03-11T01:20:29.714Z,985.30
2023-03-11T01:21:29.695Z,985.36
2023-03-11T01:22:29.686Z,985.33
2023-03-11T01:23:29.712Z,985.38
2023-03-11T01:24:29.667Z,985.44
2023-03-11T01:25:29.663Z,985.47
2023-03-11T01:26:29.642Z,985.53
2023-03-11T01:27:29.649Z,985.53
2023-03-11T01:28:29.690Z,985.58
2023-03-11T01:29:29.614Z,985.64
2023-03-11T01:30:29.605Z,985.69
2023-03-11T01:31:29.676Z,985.71
2023-03-11T01:32:29.602Z,985.76
2023-03-11T01:33:29.578Z,985.72
2023-03-11T01:34:29.571Z,985.83
2023-03-11T01:35:30.514Z,985.86
2023-03-11T01:36:29.555Z,985.85
2023-03-11T01:37:29.559Z,985.91
2023-03-11T01:38:29.516Z,985.92
2023-03-11T01:39:29.533Z,985.94
2023-03-11T01:40:29.486Z,986.03
2023-03-11T01:41:29.482Z,986.02
2023-03-11T01:42:29.466Z,985.99
2023-03-11T01:43:29.477Z,986.02
2023-03-11T01:44:29.443Z,985.96
2023-03-11T01:45:29.434Z,986.08
2023-03-11T01:46:29.479Z,986.12
2023-03-11T01:47:29.519Z,986.11
2023-03-11T01:48:29.427Z,986.11
2023-03-11T01:49:29.454Z,986.16
2023-03-11T01:50:29.376Z,986.20
2023-03-11T01:51:29.378Z,986.19
2023-03-11T01:52:29.372Z,986.30
2023-03-11T01:53:29.344Z,986.29
2023-03-11T01:54:29.351Z,986.34
2023-03-11T01:55:29.337Z,986.46
2023-03-11T01:56:29.330Z,986.43
2023-03-11T01:57:29.313Z,986.43
2023-03-11T01:58:29.312Z,986.43
2023-03-11T01:59:29.298Z,986.55
2023-03-11T02:00:29.269Z,986.59
2023-03-11T02:01:29.322Z,986.59
2023-03-11T02:02:29.303Z,986.62
2023-03-11T02:03:29.237Z,986.59
2023-03-11T02:04:29.240Z,986.63
2023-03-11T02:05:29.226Z,986.70
2023-03-11T02:06:29.247Z,986.74
2023-03-11T02:07:29.196Z,986.82
2023-03-11T02:08:29.185Z,986.82
2023-03-11T02:09:29.169Z,986.84
2023-03-11T02:10:29.190Z,986.84
2023-03-11T02:11:29.175Z,986.85
2023-03-11T02:12:29.144Z,986.88
2023-03-11T02:13:29.128Z,986.88
2023-03-11T02:14:29.120Z,987.02
2023-03-11T02:15:29.113Z,986.93
2023-03-11T02:16:29.221Z,987.00
2023-03-11T02:17:29.095Z,987.13
2023-03-11T02:18:29.076Z,987.09
2023-03-11T02:19:29.082Z,987.14
2023-03-11T02:20:29.228Z,987.21
2023-03-11T02:21:29.055Z,987.19
2023-03-11T02:22:29.079Z,987.24
2023-03-11T02:23:29.047Z,987.33
2023-03-11T02:24:29.019Z,987.37
2023-03-11T02:25:29.041Z,987.39
2023-03-11T02:26:29.000Z,987.33
2023-03-11T02:27:29.007Z,987.39
2023-03-11T02:28:28.970Z,987.54
2023-03-11T02:29:28.992Z,987.61
2023-03-11T02:30:28.953Z,987.57
2023-03-11T02:31:28.975Z,987.68
2023-03-11T02:32:29.006Z,987.69
2023-03-11T02:33:28.942Z,987.75
2023-03-11T02:34:28.914Z,987.80
2023-03-11T02:35:28.899Z,987.87
2023-03-11T02:36:28.886Z,987.85
2023-03-11T02:37:28.880Z,987.88
2023-03-11T02:38:28.877Z,987.92
2023-03-11T02:39:29.056Z,987.98
2023-03-11T02:40:28.868Z,987.98
2023-03-11T02:41:28.993Z,988.02
2023-03-11T02:42:28.830Z,988.06
2023-03-11T02:43:28.835Z,988.13
2023-03-11T02:44:28.811Z,988.09
2023-03-11T02:45:28.785Z,988.07
2023-03-11T02:46:28.780Z,988.18
2023-03-11T02:47:28.810Z,988.33
2023-03-11T02:48:28.751Z,988.43
2023-03-11T02:49:28.741Z,988.43
2023-03-11T02:50:28.746Z,988.49
2023-03-11T02:51:28.718Z,988.51
2023-03-11T02:52:28.750Z,988.48
2023-03-11T02:53:28.732Z,988.52
2023-03-11T02:54:28.689Z,988.61
2023-03-11T02:55:28.676Z,988.60
2023-03-11T02:56:28.671Z,988.70
2023-03-11T02:57:28.664Z,988.69
2023-03-11T02:58:28.638Z,988.77
2023-03-11T02:59:28.650Z,988.76
2023-03-11T03:00:28.616Z,988.81
2023-03-11T03:01:28.606Z,988.87
2023-03-11T03:02:28.616Z,988.80
2023-03-11T03:03:28.687Z,988.89
2023-03-11T03:04:28.648Z,988.91
2023-03-11T03:05:28.615Z,988.95
2023-03-11T03:06:28.600Z,989.03
2023-03-11T03:07:28.540Z,989.00
2023-03-11T03:08:28.528Z,989.08
2023-03-11T03:09:28.528Z,989.08
2023-03-11T03:10:28.516Z,989.09
2023-03-11T03:11:28.529Z,989.12
2023-03-11T03:12:28.494Z,989.14
2023-03-11T03:13:28.479Z,989.17
2023-03-11T03:14:28.465Z,989.23
2023-03-11T03:15:28.654Z,989.29
2023-03-11T03:16:28.522Z,989.33
2023-03-11T03:17:28.610Z,989.36
2023-03-11T03:18:28.418Z,989.40
2023-03-11T03:19:28.412Z,989.35
2023-03-11T03:20:28.397Z,989.41
2023-03-11T03:21:28.390Z,989.42
2023-03-11T03:22:28.372Z,989.49
2023-03-11T03:23:28.400Z,989.52
2023-03-11T03:24:28.354Z,989.67
2023-03-11T03:25:28.346Z,989.61
2023-03-11T03:26:28.330Z,989.72
2023-03-11T03:27:28.322Z,989.76
2023-03-11T03:28:28.318Z,989.78
2023-03-11T03:29:28.319Z,989.82
2023-03-11T03:30:28.294Z,989.82
2023-03-11T03:31:28.339Z,989.95
2023-03-11T03:32:28.297Z,989.98
2023-03-11T03:33:28.259Z,990.00
2023-03-11T03:34:28.248Z,990.05
2023-03-11T03:35:28.233Z,990.11
2023-03-11T03:36:28.610Z,990.12
2023-03-11T03:37:28.233Z,990.20
2023-03-11T03:38:28.213Z,990.17
2023-03-11T03:39:30.519Z,990.23
2023-03-11T03:40:28.182Z,990.31
2023-03-11T03:41:28.170Z,990.27
2023-03-11T03:42:28.176Z,990.32
2023-03-11T03:43:28.164Z,990.35
2023-03-11T03:44:28.140Z,990.46
2023-03-11T03:45:28.132Z,990.43
2023-03-11T03:46:28.117Z,990.48
2023-03-11T03:47:28.124Z,990.54
2023-03-11T03:48:28.121Z,990.64
2023-03-11T03:49:28.084Z,990.61
2023-03-11T03:50:28.071Z,990.68
2023-03-11T03:51:28.067Z,990.78
2023-03-11T03:52:28.058Z,990.81
2023-03-11T03:53:28.044Z,990.85
2023-03-11T03:54:28.046Z,990.90
2023-03-11T03:55:28.021Z,990.91
2023-03-11T03:56:28.004Z,990.96
2023-03-11T03:57:28.000Z,990.98
2023-03-11T03:58:28.008Z,990.95
2023-03-11T03:59:27.981Z,991.05
2023-03-11T04:00:27.987Z,991.00
2023-03-11T04:01:27.958Z,991.06
2023-03-11T04:02:28.034Z,991.06
2023-03-11T04:03:28.121Z,991.16
2023-03-11T04:04:27.927Z,991.18
2023-03-11T04:05:27.919Z,991.19
2023-03-11T04:06:27.943Z,991.30
2023-03-11T04:07:27.926Z,991.29
2023-03-11T04:08:27.886Z,991.35
2023-03-11T04:09:28.027Z,991.35
2023-03-11T04:10:27.877Z,991.29
2023-03-11T04:11:27.898Z,991.44
2023-03-11T04:12:27.896Z,991.40
2023-03-11T04:13:27.848Z,991.40
2023-03-11T04:14:27.827Z,991.49
2023-03-11T04:15:27.808Z,991.49
2023-03-11T04:16:27.847Z,991.56
2023-03-11T04:17:27.786Z,991.60
2023-03-11T04:18:27.778Z,991.62
2023-03-11T04:19:27.802Z,991.65
2023-03-11T04:20:27.750Z,991.70
2023-03-11T04:21:27.753Z,991.69
2023-03-11T04:22:27.736Z,991.78
2023-03-11T04:23:27.721Z,991.75
2023-03-11T04:24:27.723Z,991.84
2023-03-11T04:25:27.700Z,991.76
2023-03-11T04:26:27.688Z,991.86
2023-03-11T04:27:27.673Z,991.86
2023-03-11T04:28:27.680Z,991.87
2023-03-11T04:29:27.669Z,991.90
2023-03-11T04:30:27.643Z,991.89
2023-03-11T04:31:27.635Z,991.91
2023-03-11T04:32:27.654Z,991.87
2023-03-11T04:33:27.626Z,991.90
2023-03-11T04:34:27.602Z,992.00
2023-03-11T04:35:27.688Z,991.99
2023-03-11T04:36:27.575Z,992.02
2023-03-11T04:37:27.579Z,991.98
2023-03-11T04:38:27.567Z,992.14
2023-03-11T04:39:27.538Z,992.14
2023-03-11T04:40:27.543Z,992.20
2023-03-11T04:41:27.526Z,992.26
2023-03-11T04:42:27.572Z,992.31
2023-03-11T04:43:27.496Z,992.31
2023-03-11T04:44:27.486Z,992.27
2023-03-11T04:45:27.486Z,992.29
2023-03-11T04:46:27.539Z,992.31
2023-03-11T04:47:27.453Z,992.33
2023-03-11T04:48:27.443Z,992.37
2023-03-11T04:49:27.638Z,992.39
2023-03-11T04:50:27.442Z,992.40
2023-03-11T04:51:27.435Z,992.44
2023-03-11T04:52:27.406Z,992.48
2023-03-11T04:53:27.388Z,992.45
2023-03-11T04:54:27.388Z,992.50
2023-03-11T04:55:27.381Z,992.51
2023-03-11T04:56:27.373Z,992.54
2023-03-11T04:57:27.348Z,992.58
2023-03-11T04:58:27.330Z,992.59
2023-03-11T04:59:27.324Z,992.67
2023-03-11T05:00:27.330Z,992.73
2023-03-11T05:01:27.350Z,992.71
2023-03-11T05:02:27.288Z,992.67
2023-03-11T05:03:27.307Z,992.78
2023-03-11T05:04:27.311Z,992.79
2023-03-11T05:05:27.269Z,992.81
2023-03-11T05:06:27.245Z,992.88
2023-03-11T05:07:27.255Z,992.84
2023-03-11T05:08:27.313Z,992.88
2023-03-11T05:09:27.234Z,992.90
2023-03-11T05:10:27.219Z,992.96
2023-03-11T05:11:27.189Z,992.96
2023-03-11T05:12:27.182Z,993.01
2023-03-11T05:13:27.312Z,993.06
2023-03-11T05:14:27.177Z,993.10
2023-03-11T05:15:27.201Z,993.12
2023-03-11T05:16:27.181Z,993.17
2023-03-11T05:17:27.126Z,993.17
2023-03-11T05:18:27.132Z,993.17
2023-03-11T05:19:27.120Z,993.25
2023-03-11T05:20:27.099Z,993.31
2023-03-11T05:21:27.083Z,993.27
2023-03-11T05:22:27.067Z,993.31
2023-03-11T05:23:27.083Z,993.39
2023-03-11T05:24:27.065Z,993.49
2023-03-11T05:25:27.034Z,993.43
2023-03-11T05:26:27.039Z,993.46
2023-03-11T05:27:27.018Z,993.42
2023-03-11T05:28:27.015Z,993.54
2023-03-11T05:29:26.999Z,993.55
2023-03-11T05:30:26.983Z,993.59
2023-03-11T05:31:26.998Z,993.59
2023-03-11T05:32:27.097Z,993.62
2023-03-11T05:33:26.965Z,993.68
2023-03-11T05:34:26.953Z,993.70
2023-03-11T05:35:26.975Z,993.71
2023-03-11T05:36:26.920Z,993.72
2023-03-11T05:37:26.910Z,993.75
2023-03-11T05:38:26.913Z,993.86
2023-03-11T05:39:26.940Z,993.87
2023-03-11T05:40:26.883Z,993.83
2023-03-11T05:41:26.990Z,993.87
2023-03-11T05:42:26.858Z,993.90
2023-03-11T05:43:27.153Z,993.91
2023-03-11T05:44:26.852Z,993.98
2023-03-11T05:45:26.832Z,993.96
2023-03-11T05:46:26.856Z,994.00
2023-03-11T05:47:26.803Z,994.04
2023-03-11T05:48:26.794Z,994.00
2023-03-11T05:49:26.800Z,994.08
2023-03-11T05:50:26.777Z,994.10
2023-03-11T05:51:34.549Z,994.13
2023-03-11T05:52:26.757Z,994.13
2023-03-11T05:53:26.763Z,994.11
2023-03-11T05:54:26.733Z,994.14
2023-03-11T05:55:26.784Z,994.22
2023-03-11T05:56:26.716Z,994.23
2023-03-11T05:57:26.694Z,994.27
2023-03-11T05:58:26.760Z,994.29
2023-03-11T05:59:26.673Z,994.34
2023-03-11T06:00:26.666Z,994.41
2023-03-11T06:01:26.655Z,994.38
2023-03-11T06:02:26.644Z,994.36
2023-03-11T06:03:26.630Z,994.39
2023-03-11T06:04:26.771Z,994.44
2023-03-11T06:05:26.684Z,994.49
2023-03-11T06:06:26.606Z,994.49
2023-03-11T06:07:26.587Z,994.46
2023-03-11T06:08:26.608Z,994.52
2023-03-11T06:09:26.564Z,994.57
2023-03-11T06:10:26.564Z,994.56
2023-03-11T06:11:26.565Z,994.58
2023-03-11T06:12:26.537Z,994.61
2023-03-11T06:13:26.539Z,994.65
2023-03-11T06:14:26.514Z,994.64
2023-03-11T06:15:26.495Z,994.66
2023-03-11T06:16:26.573Z,994.67
2023-03-11T06:17:28.170Z,994.74
2023-03-11T06:18:26.491Z,994.77
2023-03-11T06:19:26.460Z,994.76
2023-03-11T06:20:26.444Z,994.81
2023-03-11T06:21:27.500Z,994.79
2023-03-11T06:22:26.429Z,994.86
2023-03-11T06:23:26.439Z,994.87
2023-03-11T06:24:26.402Z,994.83
2023-03-11T06:25:26.397Z,994.88
2023-03-11T06:26:26.382Z,994.84
2023-03-11T06:27:26.393Z,994.91
2023-03-11T06:28:26.386Z,994.93
2023-03-11T06:29:26.345Z,994.98
2023-03-11T06:30:26.340Z,994.92
2023-03-11T06:31:26.646Z,994.96
2023-03-11T06:32:26.397Z,995.00
2023-03-11T06:33:26.323Z,995.01
2023-03-11T06:34:26.299Z,995.02
2023-03-11T06:35:26.279Z,995.08
2023-03-11T06:36:26.292Z,995.07
2023-03-11T06:37:26.262Z,995.09
2023-03-11T06:38:26.252Z,995.09
2023-03-11T06:39:26.241Z,995.17
2023-03-11T06:40:26.242Z,995.16
2023-03-11T06:41:26.251Z,995.21
2023-03-11T06:42:26.238Z,995.23
2023-03-11T06:43:26.272Z,995.22
2023-03-11T06:44:26.204Z,995.27
2023-03-11T06:45:26.186Z,995.29
2023-03-11T06:46:26.188Z,995.35
2023-03-11T06:47:26.165Z,995.37
2023-03-11T06:48:26.150Z,995.39
2023-03-11T06:49:26.155Z,995.44
2023-03-11T06:50:26.122Z,995.53
2023-03-11T06:51:26.114Z,995.55
2023-03-11T06:52:26.118Z,995.54
2023-03-11T06:53:27.039Z,995.52
2023-03-11T06:54:26.116Z,995.62
2023-03-11T06:55:27.044Z,995.59
2023-03-11T06:56:26.074Z,995.55
2023-03-11T06:57:26.054Z,995.67
2023-03-11T06:58:26.057Z,995.67
2023-03-11T06:59:26.034Z,995.70
2023-03-11T07:00:26.032Z,995.75
2023-03-11T07:01:26.068Z,995.79
2023-03-11T07:02:26.079Z,995.87
2023-03-11T07:03:25.976Z,995.84
2023-03-11T07:04:26.068Z,995.86
2023-03-11T07:05:25.985Z,995.88
2023-03-11T07:06:25.975Z,995.94
2023-03-11T07:07:25.937Z,995.96
2023-03-11T07:08:26.560Z,995.97
2023-03-11T07:09:25.980Z,995.98
2023-03-11T07:10:25.924Z,995.94
2023-03-11T07:11:25.909Z,995.98
2023-03-11T07:12:25.886Z,996.04
2023-03-11T07:13:25.880Z,996.07
2023-03-11T07:14:25.875Z,996.03
2023-03-11T07:15:25.906Z,996.10
2023-03-11T07:16:25.897Z,996.15
2023-03-11T07:17:25.875Z,996.19
2023-03-11T07:18:25.814Z,996.21
2023-03-11T07:19:25.854Z,996.21
2023-03-11T07:20:25.807Z,996.24
2023-03-11T07:21:25.797Z,996.31
2023-03-11T07:22:25.789Z,996.31
2023-03-11T07:23:25.767Z,996.41
2023-03-11T07:24:25.797Z,996.38
2023-03-11T07:25:25.855Z,996.28
2023-03-11T07:26:25.731Z,996.34
2023-03-11T07:27:25.732Z,996.39
2023-03-11T07:28:25.712Z,996.38
2023-03-11T07:29:25.698Z,996.46
2023-03-11T07:30:25.683Z,996.44
2023-03-11T07:31:25.855Z,996.43
2023-03-11T07:32:25.697Z,996.50
2023-03-11T07:33:25.666Z,996.57
2023-03-11T07:34:25.650Z,996.54
2023-03-11T07:35:25.637Z,996.51
2023-03-11T07:36:25.664Z,996.64
2023-03-11T07:37:25.609Z,996.69
2023-03-11T07:38:25.673Z,996.64
2023-03-11T07:39:25.610Z,996.77
2023-03-11T07:40:25.711Z,996.73
2023-03-11T07:41:25.563Z,996.75
2023-03-11T07:42:25.566Z,996.87
2023-03-11T07:43:25.545Z,996.88
2023-03-11T07:44:25.542Z,996.92
2023-03-11T07:45:25.526Z,996.90
2023-03-11T07:46:25.589Z,996.97
2023-03-11T07:47:25.535Z,996.98
2023-03-11T07:48:25.492Z,997.05
2023-03-11T07:49:25.492Z,996.99
2023-03-11T07:50:25.469Z,997.03
2023-03-11T07:51:25.459Z,997.12
2023-03-11T07:52:25.459Z,997.03
2023-03-11T07:53:25.433Z,997.10
2023-03-11T07:54:25.425Z,997.13
2023-03-11T07:55:25.413Z,997.16
2023-03-11T07:56:25.412Z,997.33
2023-03-11T07:57:25.427Z,997.17
2023-03-11T07:58:25.389Z,997.22
2023-03-11T07:59:25.393Z,997.08
2023-03-11T08:00:25.393Z,997.11
2023-03-11T08:01:25.347Z,997.35
2023-03-11T08:02:25.412Z,997.17
2023-03-11T08:03:25.396Z,997.26
2023-03-11T08:04:25.316Z,997.20
2023-03-11T08:05:25.302Z,997.21
2023-03-11T08:06:25.322Z,997.22
2023-03-11T08:07:25.645Z,997.18
2023-03-11T08:08:25.264Z,997.27
2023-03-11T08:09:25.259Z,997.35
2023-03-11T08:10:25.242Z,997.38
2023-03-11T08:11:25.232Z,997.56
2023-03-11T08:12:25.249Z,997.45
2023-03-11T08:13:25.237Z,997.45
2023-03-11T08:14:25.205Z,997.51
2023-03-11T08:15:25.216Z,997.50
2023-03-11T08:16:25.177Z,997.51
2023-03-11T08:17:25.186Z,997.57
2023-03-11T08:18:25.158Z,997.59
2023-03-11T08:19:25.167Z,997.62
2023-03-11T08:20:25.137Z,997.63
2023-03-11T08:21:25.141Z,997.71
2023-03-11T08:22:25.142Z,997.81
2023-03-11T08:23:25.179Z,998.02
2023-03-11T08:24:25.089Z,997.69
2023-03-11T08:25:25.091Z,997.73
2023-03-11T08:26:25.085Z,997.79
2023-03-11T08:27:25.068Z,997.77
2023-03-11T08:28:25.050Z,997.92
2023-03-11T08:29:25.052Z,997.78
2023-03-11T08:30:25.025Z,998.07
2023-03-11T08:31:25.071Z,997.88
2023-03-11T08:32:25.061Z,998.04
2023-03-11T08:33:24.998Z,997.88
2023-03-11T08:34:24.997Z,998.00
2023-03-11T08:35:25.582Z,998.13
2023-03-11T08:36:24.982Z,998.04
2023-03-11T08:37:24.943Z,998.27
2023-03-11T08:38:24.935Z,998.17
2023-03-11T08:39:24.922Z,998.20
2023-03-11T08:40:24.935Z,997.92
2023-03-11T08:41:24.993Z,997.97
2023-03-11T08:42:24.911Z,998.07
2023-03-11T08:43:24.877Z,997.97
2023-03-11T08:44:24.870Z,997.92
2023-03-11T08:45:24.881Z,998.06
2023-03-11T08:46:24.992Z,998.20
2023-03-11T08:47:24.849Z,998.22
2023-03-11T08:48:24.837Z,997.94
2023-03-11T08:49:24.820Z,998.35
2023-03-11T08:50:24.812Z,998.40
2023-03-11T08:51:24.841Z,998.05
2023-03-11T08:52:24.776Z,998.40
2023-03-11T08:53:24.764Z,998.19
2023-03-11T08:54:24.906Z,998.15
2023-03-11T08:55:24.750Z,998.16
2023-03-11T08:56:24.748Z,998.25
2023-03-11T08:57:24.737Z,998.25
2023-03-11T08:58:24.711Z,998.33
2023-03-11T08:59:24.708Z,998.38
2023-03-11T09:00:24.697Z,998.36
2023-03-11T09:01:24.692Z,998.37
2023-03-11T09:02:24.676Z,998.37
2023-03-11T09:03:24.663Z,998.45
2023-03-11T09:04:24.641Z,998.49
2023-03-11T09:05:24.630Z,998.58
2023-03-11T09:06:25.594Z,998.40
2023-03-11T09:07:24.632Z,998.45
2023-03-11T09:08:24.592Z,998.58
2023-03-11T09:09:24.585Z,998.62
2023-03-11T09:10:24.578Z,998.53
2023-03-11T09:11:24.590Z,998.58
2023-03-11T09:12:24.581Z,998.64
2023-03-11T09:13:24.544Z,998.64
2023-03-11T09:14:24.534Z,998.71
2023-03-11T09:15:24.552Z,998.78
2023-03-11T09:16:24.591Z,998.71
2023-03-11T09:17:24.517Z,998.77
2023-03-11T09:18:24.498Z,999.18
2023-03-11T09:19:24.496Z,998.81
2023-03-11T09:20:24.462Z,998.84
2023-03-11T09:21:24.457Z,998.76
2023-03-11T09:22:24.439Z,998.82
2023-03-11T09:23:24.470Z,998.83
2023-03-11T09:24:24.430Z,998.81
2023-03-11T09:25:24.575Z,998.81
2023-03-11T09:26:24.400Z,998.89
2023-03-11T09:27:25.088Z,998.82
2023-03-11T09:28:24.385Z,998.83
2023-03-11T09:29:24.386Z,998.87
2023-03-11T09:30:24.373Z,998.87
2023-03-11T09:31:24.402Z,998.88
2023-03-11T09:32:24.484Z,998.91
2023-03-11T09:33:24.360Z,998.94
2023-03-11T09:34:24.322Z,998.93
2023-03-11T09:35:24.337Z,999.00
2023-03-11T09:36:24.287Z,998.96
2023-03-11T09:37:24.371Z,999.04
2023-03-11T09:38:25.059Z,999.06
2023-03-11T09:39:24.309Z,999.08
2023-03-11T09:40:24.350Z,999.10
2023-03-11T09:41:24.245Z,999.16
2023-03-11T09:42:24.225Z,999.15
2023-03-11T09:43:24.266Z,999.23
2023-03-11T09:44:24.201Z,999.23
2023-03-11T09:45:24.192Z,999.26
2023-03-11T09:46:24.184Z,999.31
2023-03-11T09:47:24.176Z,999.13
2023-03-11T09:48:24.159Z,999.21
2023-03-11T09:49:24.173Z,999.17
2023-03-11T09:50:24.272Z,999.32
2023-03-11T09:51:24.130Z,999.35
2023-03-11T09:52:24.116Z,999.44
2023-03-11T09:53:24.134Z,999.56
2023-03-11T09:54:24.135Z,999.37
2023-03-11T09:55:24.126Z,999.38
2023-03-11T09:56:24.073Z,999.40
2023-03-11T09:57:24.067Z,999.36
2023-03-11T09:58:24.069Z,999.47
2023-03-11T09:59:24.034Z,999.43
2023-03-11T10:00:24.096Z,999.47
2023-03-11T10:01:24.015Z,999.52
2023-03-11T10:02:24.181Z,999.58
2023-03-11T10:03:24.143Z,999.54
2023-03-11T10:04:23.982Z,999.48
2023-03-11T10:05:23.969Z,999.61
2023-03-11T10:06:23.964Z,999.59
2023-03-11T10:07:24.092Z,999.54
2023-03-11T10:08:23.953Z,999.63
2023-03-11T10:09:23.922Z,999.47
2023-03-11T10:10:23.919Z,999.52
2023-03-11T10:11:23.944Z,999.56
2023-03-11T10:12:23.902Z,999.62
2023-03-11T10:13:23.927Z,999.55
2023-03-11T10:14:23.874Z,999.59
2023-03-11T10:15:23.861Z,999.83
2023-03-11T10:16:23.944Z,999.59
2023-03-11T10:17:23.839Z,999.66
2023-03-11T10:18:23.850Z,999.70
2023-03-11T10:19:23.816Z,999.70
2023-03-11T10:20:23.797Z,999.66
2023-03-11T10:21:25.582Z,999.70
2023-03-11T10:22:23.797Z,999.76
2023-03-11T10:23:23.772Z,999.68
2023-03-11T10:24:23.756Z,999.73
2023-03-11T10:25:23.766Z,999.86
2023-03-11T10:26:23.732Z,999.80
2023-03-11T10:27:23.762Z,999.86
2023-03-11T10:28:23.714Z,999.96
2023-03-11T10:29:23.707Z,999.90
2023-03-11T10:30:23.707Z,999.83
2023-03-11T10:31:23.703Z,999.75
2023-03-11T10:32:23.727Z,999.90
2023-03-11T10:33:23.671Z,999.85
2023-03-11T10:34:23.663Z,999.84
2023-03-11T10:35:23.642Z,999.95
2023-03-11T10:36:23.711Z,999.88
2023-03-11T10:37:23.621Z,999.85
2023-03-11T10:38:24.132Z,999.97
2023-03-11T10:39:23.602Z,1000.03
2023-03-11T10:40:24.089Z,999.98
2023-03-11T10:41:23.576Z,1000.09
2023-03-11T10:42:23.614Z,1000.12
2023-03-11T10:43:23.598Z,1000.07
2023-03-11T10:44:23.543Z,1000.22
2023-03-11T10:45:23.583Z,999.99
2023-03-11T10:46:23.590Z,1000.00
2023-03-11T10:47:23.585Z,1000.00
2023-03-11T10:48:23.515Z,1000.02
2023-03-11T10:49:23.488Z,1000.06
2023-03-11T10:50:23.526Z,1000.06
2023-03-11T10:51:24.097Z,1000.05
2023-03-11T10:52:23.477Z,1000.08
2023-03-11T10:53:23.442Z,1000.08
2023-03-11T10:54:23.442Z,1000.17
2023-03-11T10:55:23.421Z,1000.20
2023-03-11T10:56:23.407Z,1000.12
2023-03-11T10:57:23.447Z,1000.08
2023-03-11T10:58:23.407Z,1000.22
2023-03-11T10:59:23.396Z,1000.17
2023-03-11T11:00:23.366Z,1000.22
2023-03-11T11:01:23.399Z,1000.26
2023-03-11T11:02:23.358Z,1000.14
2023-03-11T11:03:23.349Z,1000.17
2023-03-11T11:04:23.375Z,1000.29
2023-03-11T11:05:23.346Z,1000.24
2023-03-11T11:06:23.311Z,1000.33
2023-03-11T11:07:23.283Z,1000.30
2023-03-11T11:08:23.281Z,1000.29
2023-03-11T11:09:25.118Z,1000.30
2023-03-11T11:10:23.259Z,1000.29
2023-03-11T11:11:23.261Z,1000.35
2023-03-11T11:12:23.225Z,1000.43
2023-03-11T11:13:24.110Z,1000.44
2023-03-11T11:14:23.216Z,1000.41
2023-03-11T11:15:23.217Z,1000.43
2023-03-11T11:16:23.311Z,1000.40
2023-03-11T11:17:23.177Z,1000.40
2023-03-11T11:18:23.175Z,1000.35
2023-03-11T11:19:23.151Z,1000.36
2023-03-11T11:20:23.214Z,1000.36
2023-03-11T11:21:23.147Z,1000.35
2023-03-11T11:22:23.124Z,1000.42
2023-03-11T11:23:23.116Z,1000.37
2023-03-11T11:24:23.098Z,1000.44
2023-03-11T11:25:23.110Z,1000.47
2023-03-11T11:26:23.157Z,1000.45
2023-03-11T11:27:23.352Z,1000.52
2023-03-11T11:28:23.132Z,1000.42
2023-03-11T11:29:23.042Z,1000.47
2023-03-11T11:30:23.048Z,1000.53
2023-03-11T11:31:23.044Z,1000.60
2023-03-11T11:32:23.042Z,1000.57
2023-03-11T11:33:23.007Z,1000.51
2023-03-11T11:34:23.189Z,1000.48
2023-03-11T11:35:23.085Z,1000.46
2023-03-11T11:36:22.986Z,1000.54
2023-03-11T11:37:23.024Z,1000.53
2023-03-11T11:38:23.011Z,1000.45
2023-03-11T11:39:22.942Z,1000.49
2023-03-11T11:40:22.935Z,1000.84
2023-03-11T11:41:22.921Z,1000.47
2023-03-11T11:42:22.900Z,1000.45
2023-03-11T11:43:22.900Z,1000.44
2023-03-11T11:44:22.918Z,1000.44
2023-03-11T11:45:22.862Z,1000.49
2023-03-11T11:46:22.890Z,1000.49
2023-03-11T11:47:22.867Z,1000.46
2023-03-11T11:48:22.831Z,1000.49
2023-03-11T11:49:22.821Z,1000.76
2023-03-11T11:50:22.824Z,1000.91
2023-03-11T11:51:22.803Z,1000.47
2023-03-11T11:52:29.998Z,1000.63
2023-03-11T11:53:22.797Z,1000.43
2023-03-11T11:54:22.757Z,1000.42
2023-03-11T11:55:22.763Z,1000.44
2023-03-11T11:56:22.736Z,1000.41
2023-03-11T11:57:22.724Z,1000.56
2023-03-11T11:58:22.720Z,1000.55
2023-03-11T11:59:22.733Z,1000.50
2023-03-11T12:00:22.694Z,1000.49
2023-03-11T12:01:22.688Z,1000.61
2023-03-11T12:02:22.672Z,1000.56
2023-03-11T12:03:22.751Z,1000.60
2023-03-11T12:04:22.653Z,1000.62
2023-03-11T12:05:22.733Z,1000.62
2023-03-11T12:06:22.624Z,1000.59
2023-03-11T12:07:22.632Z,1000.63
2023-03-11T12:08:22.641Z,1000.60
2023-03-11T12:09:22.595Z,1000.64
2023-03-11T12:10:24.000Z,1000.72
2023-03-11T12:11:22.573Z,1000.63
2023-03-11T12:12:22.590Z,1000.64
2023-03-11T12:13:22.555Z,1000.71
2023-03-11T12:14:22.533Z,1000.69
2023-03-11T12:15:22.523Z,1000.67
2023-03-11T12:16:22.530Z,1000.68
2023-03-11T12:17:22.518Z,1000.69
2023-03-11T12:18:22.490Z,1000.69
2023-03-11T12:19:22.498Z,1001.06
2023-03-11T12:20:22.465Z,1000.96
2023-03-11T12:21:22.464Z,1000.66
2023-03-11T12:22:22.456Z,1000.67
2023-03-11T12:23:22.434Z,1000.74
2023-03-11T12:24:22.434Z,1000.72
2023-03-11T12:25:22.466Z,1000.70